sensor_id;sensor_type;location;lat;lon;timestamp;P1;durP1;ratioP1;P2;durP2;ratioP2
47796;SDS011;33558;50.922;14.068;2023-02-22T09:48:59;11.30;;;6.28;;
47796;SDS011;33558;50.922;14.068;2023-02-22T09:51:33;9.10;;;6.30;;
47796;SDS011;33558;50.922;14.068;2023-02-22T09:54:10;11.35;;;6.50;;
47796;SDS011;33558;50.922;14.068;2023-02-22T09:56:43;8.20;;;5.90;;
47796;SDS011;33558;50.922;14.068;2023-02-22T09:59:14;8.55;;;5.65;;
47796;SDS011;33558;50.922;14.068;2023-02-22T10:04:48;9.25;;;6.05;;
47796;SDS011;33558;50.922;14.068;2023-02-22T10:07:23;7.38;;;5.30;;
47796;SDS011;33558;50.922;14.068;2023-02-22T10:09:56;7.47;;;5.05;;
47796;SDS011;33558;50.922;14.068;2023-02-22T10:12:33;9.00;;;5.65;;
47796;SDS011;33558;50.922;14.068;2023-02-22T10:25:37;8.77;;;5.20;;
47796;SDS011;33558;50.922;14.068;2023-02-22T10:28:09;9.40;;;6.05;;
47796;SDS011;33558;50.922;14.068;2023-02-22T10:33:26;9.80;;;5.55;;
47796;SDS011;33558;50.922;14.068;2023-02-22T10:35:57;6.78;;;4.53;;
47796;SDS011;33558;50.922;14.068;2023-02-22T10:38:26;7.97;;;5.28;;
47796;SDS011;33558;50.922;14.068;2023-02-22T10:40:58;7.20;;;5.63;;
47796;SDS011;33558;50.922;14.068;2023-02-22T10:43:29;11.00;;;5.50;;
47796;SDS011;33558;50.922;14.068;2023-02-22T10:45:59;6.63;;;4.60;;
47796;SDS011;33558;50.922;14.068;2023-02-22T10:48:30;8.45;;;5.20;;
47796;SDS011;33558;50.922;14.068;2023-02-22T10:51:01;6.57;;;5.18;;
47796;SDS011;33558;50.922;14.068;2023-02-22T10:53:31;7.93;;;4.93;;
47796;SDS011;33558;50.922;14.068;2023-02-22T10:56:08;6.13;;;4.45;;
47796;SDS011;33558;50.922;14.068;2023-02-22T10:58:41;8.05;;;4.88;;
47796;SDS011;33558;50.922;14.068;2023-02-22T11:01:17;6.78;;;4.68;;
47796;SDS011;33558;50.922;14.068;2023-02-22T11:03:58;8.18;;;4.97;;
47796;SDS011;33558;50.922;14.068;2023-02-22T11:06:29;5.70;;;4.13;;
47796;SDS011;33558;50.922;14.068;2023-02-22T11:14:34;5.43;;;3.72;;
47796;SDS011;33558;50.922;14.068;2023-02-22T11:17:06;8.52;;;4.60;;
47796;SDS011;33558;50.922;14.068;2023-02-22T11:19:37;8.35;;;4.15;;
47796;SDS011;33558;50.922;14.068;2023-02-22T11:22:18;6.45;;;3.50;;
47796;SDS011;33558;50.922;14.068;2023-02-22T11:24:50;5.72;;;3.78;;
47796;SDS011;33558;50.922;14.068;2023-02-22T11:27:24;6.40;;;3.38;;
47796;SDS011;33558;50.922;14.068;2023-02-22T11:29:58;7.53;;;3.70;;
47796;SDS011;33558;50.922;14.068;2023-02-22T11:32:42;4.50;;;3.20;;
47796;SDS011;33558;50.922;14.068;2023-02-22T11:35:19;5.57;;;3.65;;
47796;SDS011;33558;50.922;14.068;2023-02-22T11:38:14;4.28;;;3.20;;
47796;SDS011;33558;50.922;14.068;2023-02-22T11:40:46;4.18;;;3.00;;
47796;SDS011;33558;50.922;14.068;2023-02-22T11:43:33;5.25;;;3.15;;
47796;SDS011;33558;50.922;14.068;2023-02-22T11:46:02;5.28;;;3.50;;
47796;SDS011;33558;50.922;14.068;2023-02-22T12:19:38;5.25;;;3.10;;
47796;SDS011;33558;50.922;14.068;2023-02-22T12:22:12;3.38;;;2.50;;
47796;SDS011;33558;50.922;14.068;2023-02-22T12:24:45;4.90;;;2.67;;
47796;SDS011;33558;50.922;14.068;2023-02-22T12:27:17;3.85;;;2.80;;
47796;SDS011;33558;50.922;14.068;2023-02-22T12:29:50;3.15;;;2.60;;
47796;SDS011;33558;50.922;14.068;2023-02-22T12:32:30;3.88;;;2.72;;
47796;SDS011;33558;50.922;14.068;2023-02-22T12:35:06;3.72;;;2.20;;
47796;SDS011;33558;50.922;14.068;2023-02-22T12:37:41;4.10;;;2.30;;
47796;SDS011;33558;50.922;14.068;2023-02-22T12:40:18;3.72;;;2.90;;
47796;SDS011;33558;50.922;14.068;2023-02-22T12:42:52;4.28;;;3.03;;
47796;SDS011;33558;50.922;14.068;2023-02-22T12:45:31;3.53;;;2.70;;
47796;SDS011;33558;50.922;14.068;2023-02-22T12:48:08;5.07;;;2.58;;
47796;SDS011;33558;50.922;14.068;2023-02-22T12:50:48;2.88;;;2.13;;
47796;SDS011;33558;50.922;14.068;2023-02-22T12:53:23;4.53;;;2.45;;
47796;SDS011;33558;50.922;14.068;2023-02-22T12:55:54;4.03;;;2.65;;
47796;SDS011;33558;50.922;14.068;2023-02-22T12:58:28;2.83;;;2.20;;
47796;SDS011;33558;50.922;14.068;2023-02-22T13:01:00;2.58;;;2.05;;
47796;SDS011;33558;50.922;14.068;2023-02-22T13:03:35;3.17;;;2.58;;
47796;SDS011;33558;50.922;14.068;2023-02-22T13:06:23;3.03;;;2.42;;
47796;SDS011;33558;50.922;14.068;2023-02-22T13:09:02;3.58;;;2.63;;
47796;SDS011;33558;50.922;14.068;2023-02-22T13:11:41;3.22;;;2.15;;
47796;SDS011;33558;50.922;14.068;2023-02-22T13:14:17;2.63;;;2.25;;
47796;SDS011;33558;50.922;14.068;2023-02-22T13:16:56;3.47;;;2.80;;
47796;SDS011;33558;50.922;14.068;2023-02-22T13:19:33;4.00;;;2.53;;
47796;SDS011;33558;50.922;14.068;2023-02-22T13:22:06;3.63;;;2.90;;
47796;SDS011;33558;50.922;14.068;2023-02-22T13:24:40;3.30;;;2.53;;
47796;SDS011;33558;50.922;14.068;2023-02-22T13:27:14;3.65;;;2.53;;
47796;SDS011;33558;50.922;14.068;2023-02-22T13:29:47;4.43;;;2.78;;
47796;SDS011;33558;50.922;14.068;2023-02-22T13:32:23;3.53;;;2.85;;
47796;SDS011;33558;50.922;14.068;2023-02-22T13:35:11;3.92;;;2.75;;
47796;SDS011;33558;50.922;14.068;2023-02-22T13:38:01;3.58;;;3.10;;
47796;SDS011;33558;50.922;14.068;2023-02-22T13:40:52;5.28;;;2.97;;
47796;SDS011;33558;50.922;14.068;2023-02-22T13:43:31;5.18;;;3.60;;
47796;SDS011;33558;50.922;14.068;2023-02-22T13:46:16;3.60;;;3.00;;
47796;SDS011;33558;50.922;14.068;2023-02-22T13:48:55;3.92;;;2.83;;
47796;SDS011;33558;50.922;14.068;2023-02-22T13:51:38;3.80;;;3.40;;
47796;SDS011;33558;50.922;14.068;2023-02-22T13:54:11;4.88;;;3.60;;
47796;SDS011;33558;50.922;14.068;2023-02-22T13:56:43;4.10;;;3.28;;
47796;SDS011;33558;50.922;14.068;2023-02-22T13:59:20;5.20;;;3.72;;
47796;SDS011;33558;50.922;14.068;2023-02-22T14:01:49;4.57;;;3.60;;
47796;SDS011;33558;50.922;14.068;2023-02-22T14:04:18;5.00;;;3.92;;
47796;SDS011;33558;50.922;14.068;2023-02-22T14:06:48;5.18;;;3.50;;
47796;SDS011;33558;50.922;14.068;2023-02-22T14:09:15;4.50;;;3.78;;
47796;SDS011;33558;50.922;14.068;2023-02-22T14:11:46;6.05;;;3.85;;
47796;SDS011;33558;50.922;14.068;2023-02-22T14:14:18;5.70;;;3.70;;
47796;SDS011;33558;50.922;14.068;2023-02-22T14:22:46;4.60;;;3.58;;
47796;SDS011;33558;50.922;14.068;2023-02-22T14:25:30;4.78;;;3.63;;
47796;SDS011;33558;50.922;14.068;2023-02-22T14:28:02;4.88;;;3.92;;
47796;SDS011;33558;50.922;14.068;2023-02-22T14:30:30;7.25;;;4.20;;
47796;SDS011;33558;50.922;14.068;2023-02-22T14:32:57;5.28;;;3.60;;
47796;SDS011;33558;50.922;14.068;2023-02-22T14:35:25;5.68;;;3.53;;
47796;SDS011;33558;50.922;14.068;2023-02-22T14:37:58;4.82;;;3.90;;
47796;SDS011;33558;50.922;14.068;2023-02-22T14:40:26;7.10;;;4.22;;
47796;SDS011;33558;50.922;14.068;2023-02-22T14:42:57;4.82;;;3.53;;
47796;SDS011;33558;50.922;14.068;2023-02-22T14:45:28;5.35;;;3.72;;
47796;SDS011;33558;50.922;14.068;2023-02-22T14:47:57;11.82;;;6.63;;
47796;SDS011;33558;50.922;14.068;2023-02-22T14:50:32;6.65;;;4.97;;
47796;SDS011;33558;50.922;14.068;2023-02-22T14:53:05;5.25;;;4.03;;
47796;SDS011;33558;50.922;14.068;2023-02-22T14:55:37;6.15;;;4.05;;
47796;SDS011;33558;50.922;14.068;2023-02-22T14:58:08;6.88;;;4.90;;
47796;SDS011;33558;50.922;14.068;2023-02-22T15:00:37;5.80;;;4.20;;
47796;SDS011;33558;50.922;14.068;2023-02-22T15:03:10;8.40;;;4.55;;
47796;SDS011;33558;50.922;14.068;2023-02-22T15:05:43;7.05;;;4.57;;
47796;SDS011;33558;50.922;14.068;2023-02-22T15:08:12;13.20;;;8.90;;
47796;SDS011;33558;50.922;14.068;2023-02-22T15:10:41;6.53;;;4.80;;
47796;SDS011;33558;50.922;14.068;2023-02-22T15:13:14;5.68;;;4.05;;
47796;SDS011;33558;50.922;14.068;2023-02-22T15:15:44;6.80;;;4.47;;
47796;SDS011;33558;50.922;14.068;2023-02-22T15:18:19;6.35;;;4.82;;
47796;SDS011;33558;50.922;14.068;2023-02-22T15:20:48;7.60;;;4.55;;
47796;SDS011;33558;50.922;14.068;2023-02-22T15:23:21;6.93;;;5.10;;
47796;SDS011;33558;50.922;14.068;2023-02-22T15:25:49;6.87;;;4.80;;
47796;SDS011;33558;50.922;14.068;2023-02-22T15:28:16;6.88;;;4.35;;
47796;SDS011;33558;50.922;14.068;2023-02-22T15:30:43;7.32;;;5.15;;
47796;SDS011;33558;50.922;14.068;2023-02-22T15:33:14;7.38;;;6.25;;
47796;SDS011;33558;50.922;14.068;2023-02-22T15:35:51;6.40;;;5.20;;
47796;SDS011;33558;50.922;14.068;2023-02-22T15:38:20;8.03;;;5.90;;
47796;SDS011;33558;50.922;14.068;2023-02-22T15:40:59;8.00;;;5.57;;
47796;SDS011;33558;50.922;14.068;2023-02-22T15:43:27;9.33;;;5.50;;
47796;SDS011;33558;50.922;14.068;2023-02-22T15:45:56;7.15;;;4.93;;
47796;SDS011;33558;50.922;14.068;2023-02-22T15:48:23;7.50;;;5.55;;
47796;SDS011;33558;50.922;14.068;2023-02-22T15:50:58;8.48;;;5.43;;
47796;SDS011;33558;50.922;14.068;2023-02-22T15:53:31;7.65;;;5.13;;
47796;SDS011;33558;50.922;14.068;2023-02-22T15:56:04;9.07;;;5.75;;
47796;SDS011;33558;50.922;14.068;2023-02-22T15:58:35;9.43;;;5.97;;
47796;SDS011;33558;50.922;14.068;2023-02-22T16:01:03;10.17;;;5.57;;
47796;SDS011;33558;50.922;14.068;2023-02-22T16:03:33;8.57;;;5.63;;
47796;SDS011;33558;50.922;14.068;2023-02-22T16:06:07;7.97;;;5.10;;
47796;SDS011;33558;50.922;14.068;2023-02-22T16:08:40;9.20;;;5.50;;
47796;SDS011;33558;50.922;14.068;2023-02-22T16:11:09;10.67;;;4.73;;
47796;SDS011;33558;50.922;14.068;2023-02-22T16:13:40;8.47;;;5.30;;
47796;SDS011;33558;50.922;14.068;2023-02-22T16:16:19;7.73;;;5.67;;
47796;SDS011;33558;50.922;14.068;2023-02-22T16:18:47;7.53;;;5.33;;
47796;SDS011;33558;50.922;14.068;2023-02-22T16:21:15;9.07;;;5.47;;
47796;SDS011;33558;50.922;14.068;2023-02-22T16:23:45;8.10;;;5.90;;
47796;SDS011;33558;50.922;14.068;2023-02-22T16:26:21;7.30;;;5.40;;
47796;SDS011;33558;50.922;14.068;2023-02-22T16:28:51;11.23;;;6.33;;
47796;SDS011;33558;50.922;14.068;2023-02-22T16:31:19;9.03;;;5.57;;
47796;SDS011;33558;50.922;14.068;2023-02-22T16:33:46;7.73;;;5.47;;
47796;SDS011;33558;50.922;14.068;2023-02-22T16:36:15;8.80;;;5.63;;
47796;SDS011;33558;50.922;14.068;2023-02-22T16:38:42;8.73;;;6.30;;
47796;SDS011;33558;50.922;14.068;2023-02-22T16:41:13;9.13;;;6.40;;
47796;SDS011;33558;50.922;14.068;2023-02-22T16:43:44;10.10;;;7.13;;
47796;SDS011;33558;50.922;14.068;2023-02-22T16:46:11;10.97;;;6.57;;
47796;SDS011;33558;50.922;14.068;2023-02-22T16:48:40;9.43;;;6.57;;
47796;SDS011;33558;50.922;14.068;2023-02-22T16:51:09;14.57;;;8.40;;
47796;SDS011;33558;50.922;14.068;2023-02-22T16:53:38;13.47;;;8.57;;
47796;SDS011;33558;50.922;14.068;2023-02-22T16:56:07;13.40;;;7.90;;
47796;SDS011;33558;50.922;14.068;2023-02-22T16:58:37;10.63;;;7.07;;
47796;SDS011;33558;50.922;14.068;2023-02-22T17:01:05;9.60;;;6.53;;
47796;SDS011;33558;50.922;14.068;2023-02-22T17:03:32;12.03;;;6.63;;
47796;SDS011;33558;50.922;14.068;2023-02-22T17:05:59;9.93;;;6.20;;
47796;SDS011;33558;50.922;14.068;2023-02-22T17:08:26;8.70;;;6.13;;
47796;SDS011;33558;50.922;14.068;2023-02-22T17:10:53;9.53;;;6.27;;
47796;SDS011;33558;50.922;14.068;2023-02-22T17:13:23;9.80;;;6.23;;
47796;SDS011;33558;50.922;14.068;2023-02-22T17:15:52;11.60;;;6.40;;
47796;SDS011;33558;50.922;14.068;2023-02-22T17:18:20;14.13;;;6.90;;
47796;SDS011;33558;50.922;14.068;2023-02-22T17:20:47;9.43;;;6.07;;
47796;SDS011;33558;50.922;14.068;2023-02-22T17:23:14;11.27;;;6.40;;
47796;SDS011;33558;50.922;14.068;2023-02-22T17:25:42;12.27;;;6.83;;
47796;SDS011;33558;50.922;14.068;2023-02-22T17:28:10;12.77;;;7.93;;
47796;SDS011;33558;50.922;14.068;2023-02-22T17:30:37;12.47;;;6.60;;
47796;SDS011;33558;50.922;14.068;2023-02-22T17:33:06;13.83;;;7.33;;
47796;SDS011;33558;50.922;14.068;2023-02-22T17:35:34;11.50;;;7.07;;
47796;SDS011;33558;50.922;14.068;2023-02-22T17:38:03;13.93;;;8.00;;
47796;SDS011;33558;50.922;14.068;2023-02-22T17:40:31;12.63;;;7.20;;
47796;SDS011;33558;50.922;14.068;2023-02-22T17:42:58;11.00;;;6.87;;
47796;SDS011;33558;50.922;14.068;2023-02-22T17:45:26;11.80;;;7.67;;
47796;SDS011;33558;50.922;14.068;2023-02-22T17:47:53;10.83;;;7.33;;
47796;SDS011;33558;50.922;14.068;2023-02-22T17:50:23;11.13;;;7.13;;
47796;SDS011;33558;50.922;14.068;2023-02-22T17:52:50;13.73;;;8.60;;
47796;SDS011;33558;50.922;14.068;2023-02-22T17:55:17;12.27;;;8.83;;
47796;SDS011;33558;50.922;14.068;2023-02-22T17:57:45;12.33;;;8.93;;
47796;SDS011;33558;50.922;14.068;2023-02-22T18:00:13;13.93;;;8.40;;
47796;SDS011;33558;50.922;14.068;2023-02-22T18:02:48;15.93;;;9.17;;
47796;SDS011;33558;50.922;14.068;2023-02-22T18:05:16;15.27;;;9.43;;
47796;SDS011;33558;50.922;14.068;2023-02-22T18:07:45;13.67;;;9.37;;
47796;SDS011;33558;50.922;14.068;2023-02-22T18:10:12;14.10;;;10.23;;
47796;SDS011;33558;50.922;14.068;2023-02-22T18:12:45;14.97;;;9.00;;
47796;SDS011;33558;50.922;14.068;2023-02-22T18:15:13;13.97;;;9.27;;
47796;SDS011;33558;50.922;14.068;2023-02-22T18:17:41;15.37;;;9.93;;
47796;SDS011;33558;50.922;14.068;2023-02-22T18:20:10;14.90;;;9.83;;
47796;SDS011;33558;50.922;14.068;2023-02-22T18:22:38;13.00;;;8.40;;
47796;SDS011;33558;50.922;14.068;2023-02-22T18:25:09;12.73;;;7.80;;
47796;SDS011;33558;50.922;14.068;2023-02-22T18:27:38;12.83;;;7.97;;
47796;SDS011;33558;50.922;14.068;2023-02-22T18:30:08;12.17;;;7.90;;
47796;SDS011;33558;50.922;14.068;2023-02-22T18:32:36;12.23;;;8.40;;
47796;SDS011;33558;50.922;14.068;2023-02-22T18:35:04;13.50;;;8.80;;
47796;SDS011;33558;50.922;14.068;2023-02-22T18:37:31;14.13;;;9.33;;
47796;SDS011;33558;50.922;14.068;2023-02-22T18:39:58;16.60;;;9.37;;
47796;SDS011;33558;50.922;14.068;2023-02-22T18:42:28;16.77;;;9.50;;
47796;SDS011;33558;50.922;14.068;2023-02-22T18:44:55;18.80;;;11.00;;
47796;SDS011;33558;50.922;14.068;2023-02-22T18:47:27;15.87;;;10.50;;
47796;SDS011;33558;50.922;14.068;2023-02-22T18:49:54;16.83;;;11.10;;
47796;SDS011;33558;50.922;14.068;2023-02-22T18:52:22;16.63;;;11.00;;
47796;SDS011;33558;50.922;14.068;2023-02-22T18:54:49;18.50;;;12.20;;
47796;SDS011;33558;50.922;14.068;2023-02-22T18:57:16;23.13;;;16.33;;
47796;SDS011;33558;50.922;14.068;2023-02-22T18:59:46;32.00;;;21.27;;
47796;SDS011;33558;50.922;14.068;2023-02-22T19:02:15;32.83;;;21.73;;
47796;SDS011;33558;50.922;14.068;2023-02-22T19:04:45;34.77;;;23.20;;
47796;SDS011;33558;50.922;14.068;2023-02-22T19:07:12;34.63;;;25.37;;
47796;SDS011;33558;50.922;14.068;2023-02-22T19:09:42;41.67;;;25.93;;
47796;SDS011;33558;50.922;14.068;2023-02-22T19:12:10;36.97;;;24.80;;
47796;SDS011;33558;50.922;14.068;2023-02-22T19:14:41;36.17;;;22.03;;
47796;SDS011;33558;50.922;14.068;2023-02-22T19:17:11;29.67;;;20.80;;
47796;SDS011;33558;50.922;14.068;2023-02-22T19:19:40;31.00;;;18.60;;
47796;SDS011;33558;50.922;14.068;2023-02-22T19:22:08;23.00;;;15.03;;
47796;SDS011;33558;50.922;14.068;2023-02-22T19:24:39;23.20;;;14.70;;
47796;SDS011;33558;50.922;14.068;2023-02-22T19:27:06;20.77;;;14.17;;
47796;SDS011;33558;50.922;14.068;2023-02-22T19:32:16;21.77;;;13.77;;
47796;SDS011;33558;50.922;14.068;2023-02-22T19:34:45;19.37;;;12.30;;
47796;SDS011;33558;50.922;14.068;2023-02-22T19:37:15;19.50;;;11.70;;
47796;SDS011;33558;50.922;14.068;2023-02-22T19:39:47;21.53;;;11.73;;
47796;SDS011;33558;50.922;14.068;2023-02-22T19:42:15;17.10;;;10.80;;
47796;SDS011;33558;50.922;14.068;2023-02-22T19:44:44;17.70;;;10.63;;
47796;SDS011;33558;50.922;14.068;2023-02-22T19:47:13;18.27;;;11.67;;
47796;SDS011;33558;50.922;14.068;2023-02-22T19:49:44;15.10;;;10.20;;
47796;SDS011;33558;50.922;14.068;2023-02-22T19:52:17;17.63;;;10.17;;
47796;SDS011;33558;50.922;14.068;2023-02-22T19:54:46;15.33;;;10.43;;
47796;SDS011;33558;50.922;14.068;2023-02-22T19:57:16;16.97;;;10.57;;
47796;SDS011;33558;50.922;14.068;2023-02-22T20:10:27;22.13;;;14.03;;
47796;SDS011;33558;50.922;14.068;2023-02-22T20:12:59;26.00;;;15.80;;
47796;SDS011;33558;50.922;14.068;2023-02-22T20:15:28;26.60;;;16.00;;
47796;SDS011;33558;50.922;14.068;2023-02-22T20:17:57;30.33;;;17.83;;
47796;SDS011;33558;50.922;14.068;2023-02-22T20:20:26;27.67;;;17.17;;
47796;SDS011;33558;50.922;14.068;2023-02-22T20:22:56;30.33;;;17.57;;
47796;SDS011;33558;50.922;14.068;2023-02-22T20:25:27;25.80;;;16.10;;
47796;SDS011;33558;50.922;14.068;2023-02-22T20:27:57;27.17;;;17.23;;
47796;SDS011;33558;50.922;14.068;2023-02-22T20:30:26;28.43;;;16.80;;
47796;SDS011;33558;50.922;14.068;2023-02-22T20:32:57;26.37;;;17.20;;
47796;SDS011;33558;50.922;14.068;2023-02-22T20:35:26;23.70;;;15.47;;
47796;SDS011;33558;50.922;14.068;2023-02-22T20:37:56;22.87;;;14.73;;
47796;SDS011;33558;50.922;14.068;2023-02-22T20:40:24;21.77;;;13.63;;
47796;SDS011;33558;50.922;14.068;2023-02-22T20:45:50;23.53;;;12.73;;
47796;SDS011;33558;50.922;14.068;2023-02-22T20:48:19;20.03;;;12.60;;
47796;SDS011;33558;50.922;14.068;2023-02-22T20:50:49;20.27;;;12.63;;
47796;SDS011;33558;50.922;14.068;2023-02-22T20:53:18;19.87;;;12.00;;
47796;SDS011;33558;50.922;14.068;2023-02-22T20:55:49;23.07;;;13.63;;
47796;SDS011;33558;50.922;14.068;2023-02-22T20:58:21;21.27;;;13.20;;
47796;SDS011;33558;50.922;14.068;2023-02-22T21:00:50;20.40;;;11.47;;
47796;SDS011;33558;50.922;14.068;2023-02-22T21:03:19;18.40;;;11.97;;
47796;SDS011;33558;50.922;14.068;2023-02-22T21:05:47;17.50;;;11.80;;
47796;SDS011;33558;50.922;14.068;2023-02-22T21:08:16;19.97;;;11.93;;
47796;SDS011;33558;50.922;14.068;2023-02-22T21:10:46;21.40;;;12.20;;
47796;SDS011;33558;50.922;14.068;2023-02-22T21:13:17;19.10;;;11.80;;
47796;SDS011;33558;50.922;14.068;2023-02-22T21:15:47;20.97;;;11.97;;
47796;SDS011;33558;50.922;14.068;2023-02-22T21:18:17;18.70;;;11.90;;
47796;SDS011;33558;50.922;14.068;2023-02-22T21:20:47;17.60;;;11.30;;
47796;SDS011;33558;50.922;14.068;2023-02-22T21:26:12;19.33;;;11.80;;
47796;SDS011;33558;50.922;14.068;2023-02-22T21:28:44;19.53;;;12.80;;
47796;SDS011;33558;50.922;14.068;2023-02-22T21:31:14;20.83;;;12.87;;
47796;SDS011;33558;50.922;14.068;2023-02-22T21:33:47;20.07;;;12.83;;
47796;SDS011;33558;50.922;14.068;2023-02-22T21:36:17;19.27;;;11.87;;
47796;SDS011;33558;50.922;14.068;2023-02-22T21:38:51;23.37;;;12.70;;
47796;SDS011;33558;50.922;14.068;2023-02-22T21:41:22;23.90;;;13.03;;
47796;SDS011;33558;50.922;14.068;2023-02-22T21:43:56;22.93;;;13.63;;
47796;SDS011;33558;50.922;14.068;2023-02-22T21:46:27;18.93;;;11.87;;
47796;SDS011;33558;50.922;14.068;2023-02-22T21:48:56;17.83;;;11.20;;
47796;SDS011;33558;50.922;14.068;2023-02-22T21:51:27;19.57;;;12.20;;
47796;SDS011;33558;50.922;14.068;2023-02-22T21:53:58;20.33;;;12.17;;
47796;SDS011;33558;50.922;14.068;2023-02-22T21:56:28;20.77;;;12.13;;
47796;SDS011;33558;50.922;14.068;2023-02-22T21:59:03;18.00;;;11.27;;
47796;SDS011;33558;50.922;14.068;2023-02-22T22:01:37;19.73;;;11.30;;
47796;SDS011;33558;50.922;14.068;2023-02-22T22:04:12;17.45;;;11.48;;
47796;SDS011;33558;50.922;14.068;2023-02-22T22:06:44;19.47;;;11.73;;
47796;SDS011;33558;50.922;14.068;2023-02-22T22:09:13;18.93;;;12.37;;
47796;SDS011;33558;50.922;14.068;2023-02-22T22:11:46;21.73;;;12.63;;
47796;SDS011;33558;50.922;14.068;2023-02-22T22:14:18;20.90;;;11.50;;
47796;SDS011;33558;50.922;14.068;2023-02-22T22:16:51;21.07;;;11.53;;
47796;SDS011;33558;50.922;14.068;2023-02-22T22:19:24;23.27;;;12.43;;
47796;SDS011;33558;50.922;14.068;2023-02-22T22:21:54;16.97;;;11.43;;
47796;SDS011;33558;50.922;14.068;2023-02-22T22:24:25;18.40;;;11.53;;
47796;SDS011;33558;50.922;14.068;2023-02-22T22:26:57;19.33;;;11.80;;
47796;SDS011;33558;50.922;14.068;2023-02-22T22:37:36;19.27;;;11.30;;
47796;SDS011;33558;50.922;14.068;2023-02-22T22:40:06;19.20;;;12.10;;
47796;SDS011;33558;50.922;14.068;2023-02-22T22:42:40;20.97;;;11.70;;
47796;SDS011;33558;50.922;14.068;2023-02-22T22:45:10;19.93;;;12.03;;
47796;SDS011;33558;50.922;14.068;2023-02-22T22:47:43;21.57;;;12.23;;
47796;SDS011;33558;50.922;14.068;2023-02-22T22:50:13;21.20;;;11.90;;
47796;SDS011;33558;50.922;14.068;2023-02-22T22:52:46;17.27;;;11.33;;
47796;SDS011;33558;50.922;14.068;2023-02-22T22:55:17;18.73;;;11.67;;
47796;SDS011;33558;50.922;14.068;2023-02-22T22:57:49;19.13;;;11.07;;
47796;SDS011;33558;50.922;14.068;2023-02-22T23:00:19;26.90;;;13.93;;
47796;SDS011;33558;50.922;14.068;2023-02-22T23:03:05;20.30;;;12.57;;
47796;SDS011;33558;50.922;14.068;2023-02-22T23:05:37;22.40;;;13.00;;
47796;SDS011;33558;50.922;14.068;2023-02-22T23:08:11;19.43;;;12.23;;
47796;SDS011;33558;50.922;14.068;2023-02-22T23:10:40;20.30;;;12.57;;
47796;SDS011;33558;50.922;14.068;2023-02-22T23:13:10;22.57;;;13.40;;
47796;SDS011;33558;50.922;14.068;2023-02-22T23:15:40;21.20;;;13.30;;
47796;SDS011;33558;50.922;14.068;2023-02-22T23:18:12;26.07;;;13.57;;
47796;SDS011;33558;50.922;14.068;2023-02-22T23:20:44;22.53;;;13.27;;
47796;SDS011;33558;50.922;14.068;2023-02-22T23:23:23;20.00;;;12.60;;
47796;SDS011;33558;50.922;14.068;2023-02-22T23:26:04;21.70;;;12.77;;
47796;SDS011;33558;50.922;14.068;2023-02-22T23:32:23;19.10;;;11.33;;
47796;SDS011;33558;50.922;14.068;2023-02-22T23:34:56;23.20;;;11.10;;
47796;SDS011;33558;50.922;14.068;2023-02-22T23:37:27;20.77;;;11.93;;
47796;SDS011;33558;50.922;14.068;2023-02-22T23:40:02;23.47;;;12.37;;
47796;SDS011;33558;50.922;14.068;2023-02-22T23:42:42;23.13;;;12.53;;
47796;SDS011;33558;50.922;14.068;2023-02-22T23:45:16;20.50;;;11.90;;
47796;SDS011;33558;50.922;14.068;2023-02-22T23:47:54;21.73;;;11.70;;
47796;SDS011;33558;50.922;14.068;2023-02-22T23:50:27;20.73;;;12.37;;
47796;SDS011;33558;50.922;14.068;2023-02-22T23:53:01;22.93;;;12.23;;
47796;SDS011;33558;50.922;14.068;2023-02-22T23:55:33;19.07;;;11.33;;
47796;SDS011;33558;50.922;14.068;2023-02-22T23:58:08;18.67;;;11.10;;
